createdAt,value
2023-05-01T00:00:39.557Z,12.32
2023-05-01T00:01:40.707Z,12.31
2023-05-01T00:02:39.253Z,12.32
2023-05-01T00:03:38.634Z,12.30
2023-05-01T00:04:38.616Z,12.31
2023-05-01T00:05:38.423Z,12.29
2023-05-01T00:06:38.026Z,12.28
2023-05-01T00:07:37.931Z,12.27
2023-05-01T00:08:38.612Z,12.25
2023-05-01T00:09:38.069Z,12.24
2023-05-01T00:10:38.471Z,12.23
2023-05-01T00:11:37.666Z,12.19
2023-05-01T00:12:38.033Z,12.17
2023-05-01T00:13:37.844Z,12.14
2023-05-01T00:14:38.518Z,12.14
2023-05-01T00:15:38.393Z,12.14
2023-05-01T00:16:38.433Z,12.13
2023-05-01T00:17:38.002Z,12.14
2023-05-01T00:18:37.938Z,12.12
2023-05-01T00:19:38.510Z,12.11
2023-05-01T00:20:38.396Z,12.10
2023-05-01T00:21:38.134Z,12.07
2023-05-01T00:22:37.963Z,12.05
2023-05-01T00:23:38.928Z,12.02
2023-05-01T00:24:38.669Z,12.02
2023-05-01T00:25:38.646Z,12.03
2023-05-01T00:26:38.146Z,12.02
2023-05-01T00:27:38.238Z,12.00
2023-05-01T00:28:37.932Z,11.99
2023-05-01T00:29:38.553Z,12.00
2023-05-01T00:30:38.691Z,11.97
2023-05-01T00:31:38.646Z,11.95
2023-05-01T00:32:38.759Z,11.95
2023-05-01T00:33:38.330Z,11.94
2023-05-01T00:34:38.455Z,11.94
2023-05-01T00:35:38.003Z,11.92
2023-05-01T00:36:37.869Z,11.89
2023-05-01T00:37:38.422Z,11.89
2023-05-01T00:38:38.221Z,11.89
2023-05-01T00:39:38.292Z,11.88
2023-05-01T00:40:37.969Z,11.88
2023-05-01T00:41:38.527Z,11.85
2023-05-01T00:42:38.200Z,11.86
2023-05-01T00:43:37.758Z,11.84
2023-05-01T00:44:38.325Z,11.84
2023-05-01T00:45:38.372Z,11.83
2023-05-01T00:46:38.333Z,11.82
2023-05-01T00:47:38.122Z,11.82
2023-05-01T00:48:38.088Z,11.82
2023-05-01T00:49:38.174Z,11.83
2023-05-01T00:50:38.492Z,11.82
2023-05-01T00:51:38.131Z,11.82
2023-05-01T00:52:37.963Z,11.82
2023-05-01T00:53:38.590Z,11.82
2023-05-01T00:54:43.293Z,11.82
2023-05-01T00:55:38.079Z,11.83
2023-05-01T00:56:45.808Z,11.80
2023-05-01T00:57:38.924Z,11.80
2023-05-01T00:58:38.406Z,11.78
2023-05-01T00:59:37.938Z,11.76
2023-05-01T01:00:39.726Z,11.76
2023-05-01T01:01:38.457Z,11.74
2023-05-01T01:02:38.634Z,11.72
2023-05-01T01:03:38.516Z,11.72
2023-05-01T01:04:38.493Z,11.73
2023-05-01T01:05:38.307Z,11.71
2023-05-01T01:06:38.555Z,11.69
2023-05-01T01:07:38.180Z,11.68
2023-05-01T01:08:52.257Z,11.68
2023-05-01T01:09:38.260Z,11.68
2023-05-01T01:10:52.898Z,11.68
2023-05-01T01:11:38.307Z,11.68
2023-05-01T01:12:37.896Z,11.70
2023-05-01T01:13:38.661Z,11.72
2023-05-01T01:14:38.301Z,11.73
2023-05-01T01:15:37.813Z,11.73
2023-05-01T01:16:38.530Z,11.71
2023-05-01T01:17:38.663Z,11.69
2023-05-01T01:18:38.599Z,11.71
2023-05-01T01:19:38.596Z,11.72
2023-05-01T01:20:38.889Z,11.72
2023-05-01T01:21:38.426Z,11.72
2023-05-01T01:22:38.280Z,11.71
2023-05-01T01:23:38.332Z,11.68
2023-05-01T01:24:37.952Z,11.66
2023-05-01T01:25:39.110Z,11.65
2023-05-01T01:26:38.063Z,11.65
2023-05-01T01:27:37.828Z,11.65
2023-05-01T01:28:38.446Z,11.65
2023-05-01T01:29:38.278Z,11.63
2023-05-01T01:30:43.608Z,11.65
2023-05-01T01:31:38.471Z,11.65
2023-05-01T01:32:38.409Z,11.65
2023-05-01T01:33:37.867Z,11.63
2023-05-01T01:34:38.496Z,11.63
2023-05-01T01:35:38.455Z,11.63
2023-05-01T01:36:38.012Z,11.65
2023-05-01T01:37:37.667Z,11.67
2023-05-01T01:38:38.326Z,11.67
2023-05-01T01:39:38.041Z,11.65
2023-05-01T01:40:37.874Z,11.65
2023-05-01T01:41:38.372Z,11.64
2023-05-01T01:42:38.080Z,11.61
2023-05-01T01:43:38.341Z,11.60
2023-05-01T01:45:10.660Z,11.60
2023-05-01T01:47:10.537Z,11.64
2023-05-01T01:47:43.084Z,11.65
2023-05-01T01:48:37.869Z,11.65
2023-05-01T01:49:38.458Z,11.66
2023-05-01T01:50:38.345Z,11.66
2023-05-01T01:51:38.119Z,11.66
2023-05-01T01:52:38.205Z,11.65
2023-05-01T01:53:38.024Z,11.63
2023-05-01T01:54:38.243Z,11.61
2023-05-01T01:55:38.233Z,11.63
2023-05-01T01:56:38.006Z,11.63
2023-05-01T01:57:38.035Z,11.64
2023-05-01T01:58:38.346Z,11.65
2023-05-01T01:59:38.232Z,11.65
2023-05-01T02:00:39.457Z,11.63
2023-05-01T02:01:38.087Z,11.61
2023-05-01T02:02:38.324Z,11.61
2023-05-01T02:03:38.647Z,11.60
2023-05-01T02:04:38.468Z,11.61
2023-05-01T02:05:38.264Z,11.59
2023-05-01T02:06:38.294Z,11.56
2023-05-01T02:07:38.164Z,11.57
2023-05-01T02:08:38.031Z,11.57
2023-05-01T02:09:38.018Z,11.57
2023-05-01T02:10:38.279Z,11.60
2023-05-01T02:11:37.871Z,11.60
2023-05-01T02:12:38.428Z,11.60
2023-05-01T02:13:37.968Z,11.57
2023-05-01T02:14:38.676Z,11.60
2023-05-01T02:15:38.294Z,11.60
2023-05-01T02:16:38.532Z,11.61
2023-05-01T02:17:38.436Z,11.60
2023-05-01T02:18:38.559Z,11.59
2023-05-01T02:19:38.229Z,11.57
2023-05-01T02:20:38.475Z,11.57
2023-05-01T02:21:38.384Z,11.57
2023-05-01T02:22:38.077Z,11.60
2023-05-01T02:23:38.437Z,11.61
2023-05-01T02:24:38.670Z,11.61
2023-05-01T02:25:39.081Z,11.60
2023-05-01T02:26:38.141Z,11.59
2023-05-01T02:27:38.671Z,11.59
2023-05-01T02:28:38.929Z,11.60
2023-05-01T02:29:39.253Z,11.60
2023-05-01T02:30:38.665Z,11.61
2023-05-01T02:31:38.450Z,11.63
2023-05-01T02:32:39.001Z,11.63
2023-05-01T02:33:37.924Z,11.64
2023-05-01T02:34:38.581Z,11.64
2023-05-01T02:35:38.487Z,11.61
2023-05-01T02:36:38.318Z,11.60
2023-05-01T02:37:38.075Z,11.59
2023-05-01T02:38:37.947Z,11.59
2023-05-01T02:39:38.684Z,11.59
2023-05-01T02:40:38.749Z,11.59
2023-05-01T02:41:38.369Z,11.59
2023-05-01T02:42:38.455Z,11.60
2023-05-01T02:43:37.935Z,11.63
2023-05-01T02:44:38.695Z,11.64
2023-05-01T02:45:38.834Z,11.62
2023-05-01T02:46:38.871Z,11.61
2023-05-01T02:47:39.118Z,11.60
2023-05-01T02:48:38.268Z,11.59
2023-05-01T02:49:38.489Z,11.58
2023-05-01T02:50:38.805Z,11.58
2023-05-01T02:51:38.723Z,11.59
2023-05-01T02:52:38.899Z,11.59
2023-05-01T02:53:38.742Z,11.57
2023-05-01T02:54:38.702Z,11.57
2023-05-01T02:55:39.002Z,11.58
2023-05-01T02:56:38.370Z,11.59
2023-05-01T02:57:38.644Z,11.58
2023-05-01T02:58:38.765Z,11.59
2023-05-01T02:59:38.908Z,11.59
2023-05-01T03:00:40.160Z,11.59
2023-05-01T03:01:38.304Z,11.59
2023-05-01T03:02:38.801Z,11.59
2023-05-01T03:03:39.473Z,11.60
2023-05-01T03:04:38.514Z,11.60
2023-05-01T03:05:39.014Z,11.59
2023-05-01T03:06:38.603Z,11.58
2023-05-01T03:07:38.727Z,11.54
2023-05-01T03:08:38.524Z,11.53
2023-05-01T03:09:38.739Z,11.52
2023-05-01T03:10:38.980Z,11.50
2023-05-01T03:11:39.056Z,11.49
2023-05-01T03:12:38.335Z,11.46
2023-05-01T03:13:38.402Z,11.44
2023-05-01T03:14:38.276Z,11.43
2023-05-01T03:15:38.669Z,11.42
2023-05-01T03:16:38.468Z,11.42
2023-05-01T03:17:38.640Z,11.40
2023-05-01T03:18:38.573Z,11.39
2023-05-01T03:19:38.615Z,11.37
2023-05-01T03:20:40.633Z,11.38
2023-05-01T03:21:38.418Z,11.41
2023-05-01T03:22:39.025Z,11.44
2023-05-01T03:23:38.583Z,11.46
2023-05-01T03:24:38.860Z,11.46
2023-05-01T03:25:38.874Z,11.43
2023-05-01T03:26:38.894Z,11.42
2023-05-01T03:27:38.978Z,11.38
2023-05-01T03:28:38.184Z,11.35
2023-05-01T03:29:38.296Z,11.33
2023-05-01T03:30:39.062Z,11.32
2023-05-01T03:31:38.322Z,11.30
2023-05-01T03:32:38.853Z,11.28
2023-05-01T03:33:38.964Z,11.28
2023-05-01T03:34:38.988Z,11.27
2023-05-01T03:35:38.749Z,11.26
2023-05-01T03:36:38.750Z,11.22
2023-05-01T03:37:38.632Z,11.22
2023-05-01T03:38:38.547Z,11.23
2023-05-01T03:39:38.450Z,11.22
2023-05-01T03:40:38.855Z,11.23
2023-05-01T03:41:38.644Z,11.19
2023-05-01T03:42:38.980Z,11.20
2023-05-01T03:43:38.380Z,11.20
2023-05-01T03:44:38.629Z,11.20
2023-05-01T03:45:39.222Z,11.21
2023-05-01T03:46:39.056Z,11.22
2023-05-01T03:47:38.632Z,11.24
2023-05-01T03:48:39.117Z,11.23
2023-05-01T03:49:38.534Z,11.20
2023-05-01T03:50:38.843Z,11.18
2023-05-01T03:51:38.898Z,11.17
2023-05-01T03:52:38.914Z,11.15
2023-05-01T03:53:38.969Z,11.13
2023-05-01T03:54:39.210Z,11.10
2023-05-01T03:55:38.960Z,11.10
2023-05-01T03:56:38.861Z,11.09
2023-05-01T03:57:38.961Z,11.07
2023-05-01T03:58:38.985Z,11.05
2023-05-01T03:59:38.201Z,11.03
2023-05-01T04:00:39.631Z,11.02
2023-05-01T04:02:01.016Z,10.99
2023-05-01T04:02:38.884Z,10.99
2023-05-01T04:03:39.331Z,10.99
2023-05-01T04:04:38.816Z,10.98
2023-05-01T04:05:39.100Z,10.96
2023-05-01T04:06:38.770Z,10.94
2023-05-01T04:07:38.829Z,10.94
2023-05-01T04:08:39.330Z,10.94
2023-05-01T04:09:38.821Z,10.93
2023-05-01T04:10:39.185Z,10.95
2023-05-01T04:11:38.322Z,10.95
2023-05-01T04:12:38.555Z,10.94
2023-05-01T04:13:38.396Z,10.90
2023-05-01T04:14:38.643Z,10.89
2023-05-01T04:15:38.822Z,10.86
2023-05-01T04:16:38.902Z,10.84
2023-05-01T04:17:38.780Z,10.84
2023-05-01T04:18:38.877Z,10.84
2023-05-01T04:19:38.850Z,10.83
2023-05-01T04:20:39.405Z,10.81
2023-05-01T04:21:38.656Z,10.81
2023-05-01T04:22:38.975Z,10.80
2023-05-01T04:23:40.033Z,10.78
2023-05-01T04:24:38.483Z,10.77
2023-05-01T04:25:39.046Z,10.76
2023-05-01T04:26:38.356Z,10.77
2023-05-01T04:27:38.490Z,10.75
2023-05-01T04:28:38.631Z,10.76
2023-05-01T04:29:38.800Z,10.78
2023-05-01T04:30:39.301Z,10.78
2023-05-01T04:31:38.935Z,10.78
2023-05-01T04:32:39.110Z,10.78
2023-05-01T04:33:38.580Z,10.77
2023-05-01T04:34:39.071Z,10.76
2023-05-01T04:35:38.673Z,10.75
2023-05-01T04:36:38.853Z,10.79
2023-05-01T04:37:38.898Z,10.78
2023-05-01T04:38:39.089Z,10.78
2023-05-01T04:39:38.355Z,10.78
2023-05-01T04:40:38.833Z,10.77
2023-05-01T04:41:39.203Z,10.77
2023-05-01T04:42:38.734Z,10.77
2023-05-01T04:44:38.773Z,10.76
2023-05-01T04:45:39.280Z,10.75
2023-05-01T04:46:39.166Z,10.73
2023-05-01T04:47:38.953Z,10.76
2023-05-01T04:48:38.618Z,10.76
2023-05-01T04:50:39.027Z,10.77
2023-05-01T04:51:38.560Z,10.78
2023-05-01T04:52:39.057Z,10.79
2023-05-01T04:53:38.593Z,10.78
2023-05-01T04:54:38.981Z,10.79
2023-05-01T04:55:38.572Z,10.80
2023-05-01T04:56:39.113Z,10.82
2023-05-01T04:57:38.788Z,10.83
2023-05-01T04:58:39.008Z,10.85
2023-05-01T04:59:38.583Z,10.86
2023-05-01T05:00:39.951Z,10.88
2023-05-01T05:01:39.731Z,10.89
2023-05-01T05:02:39.411Z,10.88
2023-05-01T05:03:39.434Z,10.90
2023-05-01T05:04:38.819Z,10.91
2023-05-01T05:05:39.139Z,10.89
2023-05-01T05:06:38.860Z,10.88
2023-05-01T05:07:39.541Z,10.87
2023-05-01T05:08:38.651Z,10.86
2023-05-01T05:09:39.337Z,10.85
2023-05-01T05:10:39.419Z,10.86
2023-05-01T05:11:38.724Z,10.87
2023-05-01T05:12:38.973Z,10.87
2023-05-01T05:13:39.059Z,10.88
2023-05-01T05:14:38.432Z,10.89
2023-05-01T05:15:38.818Z,10.93
2023-05-01T05:16:39.329Z,10.96
2023-05-01T05:17:39.030Z,10.97
2023-05-01T05:18:38.649Z,10.98
2023-05-01T05:19:39.028Z,10.98
2023-05-01T05:20:38.834Z,11.00
2023-05-01T05:21:38.966Z,11
2023-05-01T05:22:38.928Z,11.02
2023-05-01T05:23:39.097Z,11.01
2023-05-01T05:24:38.726Z,10.99
2023-05-01T05:25:39.056Z,10.98
2023-05-01T05:26:38.576Z,10.98
2023-05-01T05:27:38.783Z,10.97
2023-05-01T05:28:38.997Z,11
2023-05-01T05:29:39.162Z,11.02
2023-05-01T05:30:38.833Z,11.06
2023-05-01T05:31:39.145Z,11.08
2023-05-01T05:32:39.109Z,11.08
2023-05-01T05:33:38.984Z,11.11
2023-05-01T05:34:38.750Z,11.11
2023-05-01T05:35:39.777Z,11.11
2023-05-01T05:36:39.530Z,11.13
2023-05-01T05:37:39.359Z,11.14
2023-05-01T05:38:38.901Z,11.17
2023-05-01T05:39:39.222Z,11.20
2023-05-01T05:40:38.487Z,11.22
2023-05-01T05:41:38.655Z,11.22
2023-05-01T05:42:39.311Z,11.23
2023-05-01T05:43:41.128Z,11.25
2023-05-01T05:44:43.803Z,11.27
2023-05-01T05:45:39.310Z,11.27
2023-05-01T05:46:39.104Z,11.28
2023-05-01T05:47:39.115Z,11.30
2023-05-01T05:48:38.859Z,11.31
2023-05-01T05:49:39.711Z,11.33
2023-05-01T05:50:39.593Z,11.34
2023-05-01T05:51:39.037Z,11.35
2023-05-01T05:52:38.857Z,11.36
2023-05-01T05:53:41.336Z,11.38
2023-05-01T05:54:39.206Z,11.39
2023-05-01T05:55:39.049Z,11.40
2023-05-01T05:56:38.866Z,11.41
2023-05-01T05:57:39.909Z,11.41
2023-05-01T05:58:39.280Z,11.42
2023-05-01T05:59:38.810Z,11.43
2023-05-01T06:00:54.386Z,11.45
2023-05-01T06:01:39.341Z,11.47
2023-05-01T06:02:39.571Z,11.50
2023-05-01T06:03:40.174Z,11.52
2023-05-01T06:04:38.900Z,11.53
2023-05-01T06:05:39.745Z,11.55
2023-05-01T06:06:54.144Z,11.55
2023-05-01T06:07:38.712Z,11.56
2023-05-01T06:08:53.511Z,11.59
2023-05-01T06:09:39.236Z,11.60
2023-05-01T06:10:39.147Z,11.60
2023-05-01T06:11:38.688Z,11.60
2023-05-01T06:12:41.175Z,11.62
2023-05-01T06:13:38.839Z,11.63
2023-05-01T06:14:39.471Z,11.63
2023-05-01T06:15:39.325Z,11.64
2023-05-01T06:16:39.153Z,11.65
2023-05-01T06:17:38.719Z,11.67
2023-05-01T06:18:38.761Z,11.69
2023-05-01T06:19:38.862Z,11.72
2023-05-01T06:20:39.638Z,11.73
2023-05-01T06:21:39.474Z,11.74
2023-05-01T06:22:39.217Z,11.77
2023-05-01T06:23:38.597Z,11.79
2023-05-01T06:24:38.965Z,11.80
2023-05-01T06:25:39.691Z,11.81
2023-05-01T06:26:39.363Z,11.82
2023-05-01T06:27:38.774Z,11.83
2023-05-01T06:28:39.422Z,11.84
2023-05-01T06:29:38.985Z,11.85
2023-05-01T06:30:38.632Z,11.87
2023-05-01T06:31:39.409Z,11.89
2023-05-01T06:32:39.339Z,11.89
2023-05-01T06:33:39.010Z,11.90
2023-05-01T06:34:38.486Z,11.90
2023-05-01T06:35:39.387Z,11.91
2023-05-01T06:36:38.724Z,11.92
2023-05-01T06:37:38.959Z,11.93
2023-05-01T06:38:42.014Z,11.94
2023-05-01T06:39:38.829Z,11.96
2023-05-01T06:40:39.451Z,11.99
2023-05-01T06:41:38.762Z,12.02
2023-05-01T06:42:39.293Z,12.05
2023-05-01T06:43:38.974Z,12.06
2023-05-01T06:44:38.998Z,12.09
2023-05-01T06:45:38.960Z,12.12
2023-05-01T06:46:39.710Z,12.14
2023-05-01T06:47:39.391Z,12.18
2023-05-01T06:48:38.854Z,12.21
2023-05-01T06:49:39.465Z,12.24
2023-05-01T06:50:39.462Z,12.27
2023-05-01T06:51:38.936Z,12.29
2023-05-01T06:52:39.374Z,12.34
2023-05-01T06:53:38.943Z,12.39
2023-05-01T06:54:39.659Z,12.42
2023-05-01T06:55:39.507Z,12.46
2023-05-01T06:56:39.043Z,12.50
2023-05-01T06:57:38.978Z,12.52
2023-05-01T06:58:39.930Z,12.53
2023-05-01T06:59:39.550Z,12.56
2023-05-01T07:00:40.064Z,12.59
2023-05-01T07:01:38.886Z,12.60
2023-05-01T07:02:39.486Z,12.61
2023-05-01T07:03:39.446Z,12.63
2023-05-01T07:04:39.628Z,12.64
2023-05-01T07:05:39.359Z,12.66
2023-05-01T07:06:39.067Z,12.68
2023-05-01T07:07:42.210Z,12.69
2023-05-01T07:08:39.117Z,12.70
2023-05-01T07:09:38.988Z,12.71
2023-05-01T07:10:40.563Z,12.73
2023-05-01T07:11:38.833Z,12.75
2023-05-01T07:12:39.646Z,12.75
2023-05-01T07:13:39.410Z,12.76
2023-05-01T07:14:38.780Z,12.78
2023-05-01T07:15:39.893Z,12.81
2023-05-01T07:16:39.690Z,12.83
2023-05-01T07:17:39.557Z,12.85
2023-05-01T07:18:39.814Z,12.88
2023-05-01T07:19:39.700Z,12.91
2023-05-01T07:20:39.754Z,12.94
2023-05-01T07:21:39.407Z,12.95
2023-05-01T07:22:39.108Z,12.98
2023-05-01T07:23:39.027Z,13.00
2023-05-01T07:24:38.975Z,13.01
2023-05-01T07:25:39.098Z,13.02
2023-05-01T07:26:39.396Z,13.03
2023-05-01T07:27:39.419Z,13.04
2023-05-01T07:28:39.081Z,13.04
2023-05-01T07:29:38.708Z,13.04
2023-05-01T07:30:39.585Z,13.06
2023-05-01T07:31:39.097Z,13.07
2023-05-01T07:32:38.942Z,13.06
2023-05-01T07:33:38.942Z,13.06
2023-05-01T07:34:39.116Z,13.06
2023-05-01T07:35:38.977Z,13.06
2023-05-01T07:36:39.108Z,13.07
2023-05-01T07:37:38.941Z,13.09
2023-05-01T07:38:39.629Z,13.10
2023-05-01T07:39:39.375Z,13.12
2023-05-01T07:40:39.073Z,13.14
2023-05-01T07:41:39.147Z,13.15
2023-05-01T07:42:39.174Z,13.17
2023-05-01T07:43:38.711Z,13.18
2023-05-01T07:44:38.891Z,13.19
2023-05-01T07:45:39.560Z,13.19
2023-05-01T07:46:39.084Z,13.19
2023-05-01T07:47:38.928Z,13.21
2023-05-01T07:48:39.279Z,13.23
2023-05-01T07:49:38.948Z,13.25
2023-05-01T07:50:39.689Z,13.28
2023-05-01T07:51:39.411Z,13.31
2023-05-01T07:52:39.182Z,13.33
2023-05-01T07:53:39.098Z,13.38
2023-05-01T07:54:38.949Z,13.47
2023-05-01T07:55:39.656Z,13.49
2023-05-01T07:56:38.947Z,13.49
2023-05-01T07:57:39.082Z,13.49
2023-05-01T07:58:39.005Z,13.49
2023-05-01T07:59:38.789Z,13.49
2023-05-01T08:00:40.369Z,13.52
2023-05-01T08:01:39.285Z,13.55
2023-05-01T08:02:39.720Z,13.59
2023-05-01T08:03:39.675Z,13.64
2023-05-01T08:04:39.536Z,13.67
2023-05-01T08:05:39.348Z,13.69
2023-05-01T08:06:39.080Z,13.72
2023-05-01T08:07:38.769Z,13.75
2023-05-01T08:08:39.201Z,13.80
2023-05-01T08:09:38.985Z,13.83
2023-05-01T08:10:39.057Z,13.86
2023-05-01T08:11:39.310Z,13.87
2023-05-01T08:12:38.904Z,13.89
2023-05-01T08:13:39.231Z,13.92
2023-05-01T08:14:39.245Z,13.92
2023-05-01T08:15:47.299Z,13.92
2023-05-01T08:16:39.382Z,13.92
2023-05-01T08:17:38.897Z,13.93
2023-05-01T08:18:39.426Z,13.96
2023-05-01T08:19:39.066Z,13.98
2023-05-01T08:20:39.183Z,13.98
2023-05-01T08:21:38.562Z,13.98
2023-05-01T08:22:39.180Z,13.96
2023-05-01T08:23:38.945Z,13.95
2023-05-01T08:24:39.461Z,13.94
2023-05-01T08:25:39.501Z,13.95
2023-05-01T08:26:38.817Z,13.97
2023-05-01T08:27:39.123Z,13.97
2023-05-01T08:28:38.962Z,13.99
2023-05-01T08:29:39.449Z,14.04
2023-05-01T08:30:39.196Z,14.09
2023-05-01T08:31:39.177Z,14.15
2023-05-01T08:32:39.038Z,14.19
2023-05-01T08:33:38.803Z,14.21
2023-05-01T08:34:39.177Z,14.23
2023-05-01T08:35:38.584Z,14.24
2023-05-01T08:36:39.037Z,14.26
2023-05-01T08:37:38.672Z,14.28
2023-05-01T08:38:39.231Z,14.31
2023-05-01T08:39:38.852Z,14.36
2023-05-01T08:40:39.343Z,14.42
2023-05-01T08:41:39.088Z,14.45
2023-05-01T08:42:39.345Z,14.49
2023-05-01T08:43:39.053Z,14.52
2023-05-01T08:44:38.933Z,14.52
2023-05-01T08:45:39.394Z,14.52
2023-05-01T08:46:39.226Z,14.53
2023-05-01T08:47:39.488Z,14.53
2023-05-01T08:48:39.471Z,14.55
2023-05-01T08:49:38.824Z,14.59
2023-05-01T08:50:39.928Z,14.60
2023-05-01T08:51:39.438Z,14.61
2023-05-01T08:52:39.408Z,14.63
2023-05-01T08:53:39.105Z,14.65
2023-05-01T08:54:39.136Z,14.68
2023-05-01T08:55:39.596Z,14.72
2023-05-01T08:56:39.348Z,14.75
2023-05-01T08:58:10.521Z,14.77
2023-05-01T08:58:42.956Z,14.77
2023-05-01T08:59:39.537Z,14.79
2023-05-01T09:00:40.200Z,14.80
2023-05-01T09:02:10.431Z,14.81
2023-05-01T09:02:43.046Z,14.82
2023-05-01T09:03:39.262Z,14.84
2023-05-01T09:04:39.541Z,14.87
2023-05-01T09:05:39.410Z,15.03
2023-05-01T09:06:39.569Z,15.04
2023-05-01T09:07:39.287Z,15.06
2023-05-01T09:08:39.269Z,15.09
2023-05-01T09:09:39.265Z,15.11
2023-05-01T09:10:39.770Z,15.14
2023-05-01T09:11:53.820Z,15.14
2023-05-01T09:12:39.825Z,15.14
2023-05-01T09:13:39.453Z,15.14
2023-05-01T09:14:39.056Z,15.18
2023-05-01T09:15:39.517Z,15.22
2023-05-01T09:16:39.450Z,15.28
2023-05-01T09:17:39.297Z,15.41
2023-05-01T09:18:39.315Z,15.40
2023-05-01T09:19:39.471Z,15.36
2023-05-01T09:20:39.864Z,15.32
2023-05-01T09:21:39.555Z,15.31
2023-05-01T09:22:39.503Z,15.32
2023-05-01T09:23:39.191Z,15.35
2023-05-01T09:24:39.525Z,15.35
2023-05-01T09:25:39.791Z,15.34
2023-05-01T09:26:39.682Z,15.33
2023-05-01T09:27:39.427Z,15.34
2023-05-01T09:28:39.567Z,15.32
2023-05-01T09:29:39.649Z,15.31
2023-05-01T09:30:39.811Z,15.31
2023-05-01T09:31:39.934Z,15.31
2023-05-01T09:32:42.554Z,15.32
2023-05-01T09:33:39.685Z,15.33
2023-05-01T09:34:39.137Z,15.37
2023-05-01T09:35:39.491Z,15.39
2023-05-01T09:36:39.161Z,15.40
2023-05-01T09:37:39.414Z,15.40
2023-05-01T09:38:39.006Z,15.40
2023-05-01T09:39:38.655Z,15.39
2023-05-01T09:40:39.685Z,15.42
2023-05-01T09:41:39.208Z,15.46
2023-05-01T09:42:39.191Z,15.48
2023-05-01T09:43:38.749Z,15.47
2023-05-01T09:44:39.357Z,15.48
2023-05-01T09:45:39.510Z,15.49
2023-05-01T09:46:39.709Z,15.51
2023-05-01T09:47:40.047Z,15.53
2023-05-01T09:48:39.129Z,15.53
2023-05-01T09:49:38.975Z,15.51
2023-05-01T09:50:39.335Z,15.50
2023-05-01T09:51:39.227Z,15.47
2023-05-01T09:52:39.404Z,15.48
2023-05-01T09:53:39.486Z,15.49
2023-05-01T09:54:39.324Z,15.46
2023-05-01T09:55:41.081Z,15.41
2023-05-01T09:56:38.929Z,15.34
2023-05-01T09:57:39.771Z,15.31
2023-05-01T09:58:39.780Z,15.34
2023-05-01T09:59:39.439Z,15.39
2023-05-01T10:00:40.112Z,15.43
2023-05-01T10:01:38.999Z,15.46
2023-05-01T10:02:39.576Z,15.48
2023-05-01T10:03:40.034Z,15.49
2023-05-01T10:04:39.029Z,15.5
2023-05-01T10:05:39.271Z,15.51
2023-05-01T10:06:39.718Z,15.53
2023-05-01T10:07:39.593Z,15.53
2023-05-01T10:08:39.037Z,15.54
2023-05-01T10:09:39.072Z,15.55
2023-05-01T10:10:44.046Z,15.58
2023-05-01T10:11:39.081Z,15.56
2023-05-01T10:12:38.953Z,15.55
2023-05-01T10:13:39.852Z,15.61
2023-05-01T10:14:39.899Z,15.61
2023-05-01T10:15:42.366Z,15.61
2023-05-01T10:16:39.192Z,15.61
2023-05-01T10:17:39.047Z,15.62
2023-05-01T10:18:38.656Z,15.64
2023-05-01T10:19:39.539Z,15.65
2023-05-01T10:20:39.802Z,15.65
2023-05-01T10:21:39.571Z,15.65
2023-05-01T10:22:39.453Z,15.65
2023-05-01T10:23:39.304Z,15.67
2023-05-01T10:24:39.687Z,15.70
2023-05-01T10:25:39.586Z,15.68
2023-05-01T10:26:39.507Z,15.64
2023-05-01T10:27:39.254Z,15.63
2023-05-01T10:28:39.228Z,15.61
2023-05-01T10:29:38.970Z,15.58
2023-05-01T10:30:45.365Z,15.59
2023-05-01T10:31:41.539Z,15.60
2023-05-01T10:32:44.343Z,15.61
2023-05-01T10:34:29.067Z,15.63
2023-05-01T10:34:43.967Z,15.62
2023-05-01T10:35:39.576Z,15.63
2023-05-01T10:36:39.453Z,15.62
2023-05-01T10:37:39.523Z,15.62
2023-05-01T10:38:39.457Z,15.66
2023-05-01T10:39:39.391Z,15.68
2023-05-01T10:40:39.488Z,15.69
2023-05-01T10:41:39.080Z,15.70
2023-05-01T10:42:39.062Z,15.71
2023-05-01T10:43:38.911Z,15.71
2023-05-01T10:44:39.488Z,15.73
2023-05-01T10:45:39.259Z,15.75
2023-05-01T10:46:39.390Z,15.73
2023-05-01T10:47:39.266Z,15.73
2023-05-01T10:48:39.635Z,15.74
2023-05-01T10:49:39.544Z,15.75
2023-05-01T10:50:39.723Z,15.80
2023-05-01T10:51:43.155Z,15.81
2023-05-01T10:52:39.095Z,15.83
2023-05-01T10:53:38.807Z,15.86
2023-05-01T10:54:39.858Z,15.87
2023-05-01T10:55:39.931Z,15.86
2023-05-01T10:56:39.529Z,15.86
2023-05-01T10:57:40.116Z,15.88
2023-05-01T10:58:39.400Z,15.90
2023-05-01T10:59:39.207Z,15.91
2023-05-01T11:00:40.684Z,15.94
2023-05-01T11:01:39.930Z,15.99
2023-05-01T11:02:39.598Z,15.99
2023-05-01T11:03:39.913Z,15.99
2023-05-01T11:04:40.319Z,15.99
2023-05-01T11:05:53.790Z,16.01
2023-05-01T11:06:40.204Z,16.04
2023-05-01T11:07:39.493Z,16.02
2023-05-01T11:08:39.441Z,16.00
2023-05-01T11:09:39.417Z,16.02
2023-05-01T11:10:39.525Z,16.06
2023-05-01T11:11:39.308Z,16.08
2023-05-01T11:12:39.311Z,16.12
2023-05-01T11:13:39.482Z,16.14
2023-05-01T11:14:39.168Z,16.15
2023-05-01T11:15:39.371Z,16.17
2023-05-01T11:16:40.083Z,16.20
2023-05-01T11:17:39.484Z,16.19
2023-05-01T11:18:39.611Z,16.18
2023-05-01T11:21:10.644Z,16.22
2023-05-01T11:21:43.765Z,16.23
2023-05-01T11:22:39.320Z,16.23
2023-05-01T11:23:39.190Z,16.21
2023-05-01T11:24:39.082Z,16.23
2023-05-01T11:25:39.200Z,16.20
2023-05-01T11:27:09.918Z,16.15
2023-05-01T11:27:42.968Z,16.15
2023-05-01T11:28:39.615Z,16.13
2023-05-01T11:29:39.100Z,16.14
2023-05-01T11:30:39.594Z,16.19
2023-05-01T11:31:39.875Z,16.20
2023-05-01T11:32:39.981Z,16.16
2023-05-01T11:33:39.132Z,16.15
2023-05-01T11:35:10.122Z,16.18
2023-05-01T11:35:42.689Z,16.21
2023-05-01T11:36:39.379Z,16.23
2023-05-01T11:37:39.226Z,16.27
2023-05-01T11:38:39.031Z,16.29
2023-05-01T11:39:39.044Z,16.30
2023-05-01T11:40:39.153Z,16.32
2023-05-01T11:41:39.521Z,16.31
2023-05-01T11:42:40.114Z,16.28
2023-05-01T11:43:39.612Z,16.27
2023-05-01T11:44:39.951Z,16.29
2023-05-01T11:45:39.882Z,16.30
2023-05-01T11:46:40.026Z,16.32
2023-05-01T11:47:39.892Z,16.38
2023-05-01T11:48:39.994Z,16.39
2023-05-01T11:49:39.355Z,16.39
2023-05-01T11:50:39.386Z,16.42
2023-05-01T11:51:39.427Z,16.42
2023-05-01T11:52:39.857Z,16.42
2023-05-01T11:53:39.944Z,16.45
2023-05-01T11:54:40.313Z,16.49
2023-05-01T11:55:39.746Z,16.51
2023-05-01T11:56:42.985Z,16.49
2023-05-01T11:57:39.234Z,16.49
2023-05-01T11:58:39.261Z,16.50
2023-05-01T11:59:39.356Z,16.53
2023-05-01T12:01:12.418Z,16.53
2023-05-01T12:01:44.658Z,16.53
2023-05-01T12:02:40.615Z,16.51
2023-05-01T12:03:40.425Z,16.50
2023-05-01T12:04:39.576Z,16.49
2023-05-01T12:05:39.654Z,16.51
2023-05-01T12:06:39.858Z,16.52
2023-05-01T12:07:39.835Z,16.53
2023-05-01T12:08:40.253Z,16.54
2023-05-01T12:09:39.406Z,16.56
2023-05-01T12:10:39.512Z,16.54
2023-05-01T12:11:39.182Z,16.57
2023-05-01T12:12:39.365Z,16.59
2023-05-01T12:13:39.381Z,16.62
2023-05-01T12:14:39.078Z,16.68
2023-05-01T12:15:39.659Z,16.76
2023-05-01T12:16:39.439Z,16.80
2023-05-01T12:17:40.088Z,16.87
2023-05-01T12:18:39.675Z,16.87
2023-05-01T12:19:39.651Z,16.87
2023-05-01T12:20:40.239Z,16.89
2023-05-01T12:21:39.323Z,16.83
2023-05-01T12:22:39.482Z,16.84
2023-05-01T12:23:39.084Z,16.87
2023-05-01T12:24:39.052Z,16.89
2023-05-01T12:25:39.254Z,16.87
2023-05-01T12:26:39.456Z,16.88
2023-05-01T12:27:39.542Z,16.88
2023-05-01T12:28:39.173Z,16.85
2023-05-01T12:29:39.097Z,16.86
2023-05-01T12:30:40.104Z,16.89
2023-05-01T12:31:39.531Z,16.89
2023-05-01T12:32:39.755Z,16.88
2023-05-01T12:33:39.860Z,16.85
2023-05-01T12:34:40.234Z,16.79
2023-05-01T12:35:39.644Z,16.78
2023-05-01T12:36:39.745Z,16.79
2023-05-01T12:37:39.732Z,16.75
2023-05-01T12:38:39.834Z,16.80
2023-05-01T12:39:39.574Z,16.82
2023-05-01T12:40:39.876Z,16.80
2023-05-01T12:41:39.642Z,16.79
2023-05-01T12:42:39.676Z,16.81
2023-05-01T12:43:39.476Z,16.83
2023-05-01T12:44:39.329Z,16.84
2023-05-01T12:45:39.409Z,16.81
2023-05-01T12:46:39.686Z,16.74
2023-05-01T12:47:39.291Z,16.66
2023-05-01T12:48:39.569Z,16.62
2023-05-01T12:49:39.779Z,16.63
2023-05-01T12:50:39.991Z,16.69
2023-05-01T12:51:39.198Z,16.76
2023-05-01T12:52:39.324Z,16.79
2023-05-01T12:53:39.629Z,16.82
2023-05-01T12:54:39.541Z,16.86
2023-05-01T12:55:40.119Z,16.87
2023-05-01T12:56:39.317Z,16.88